PWSweather.com
Personal Weather Stations
Station Observations

PoschiavoCH

Lat: 46.31962499999999, Lon: 10.066551000000004

Elevation: 3517

Station Type: WH 1080

http://www.meteoposchiavo.com

High Low Average
Temperature 76.0°F24.4°F 59.0°F15.0°F 64.9°F18.3°F
Dew Point 65.4°F18.6°F 58.3°F14.6°F 61.4°F16.3°F
Winds 2.3 mph -3.7 mph - Calm Calm Calm Calm
Wind Gusts 2.3 mph3.7 mph -- 0.1 mph0.2 mph
Humidity 99% 60% 89%
Pressure 26.63 in901.80 in 26.57 in899.80 in -
Precipitation 2.91 in73.90 in - -
Hour Temp Dew Point Humidity Winds Wind Gusts Pressure Precip Precip Rate Daily Precip Total
12:00 AM 60.0°F15.6°C 58.6°F14.8°C 95% Calm Calm -- 26.61 in901.1 mb - 0.00 in0.0 mm 0.00 in0.0 mm
12:10 AM 60.0°F15.6°C 58.6°F14.8°C 95% Calm Calm -- 26.61 in901.1 mb - 0.00 in0.0 mm 0.00 in0.0 mm
12:15 AM 60.0°F15.6°C 58.6°F14.8°C 95% Calm Calm -- 26.61 in901.1 mb - 0.00 in0.0 mm 0.00 in0.0 mm
12:20 AM 60.0°F15.6°C 58.6°F14.8°C 95% Calm Calm -- 26.61 in901.1 mb - 0.00 in0.0 mm 0.00 in0.0 mm
12:25 AM 60.0°F15.6°C 58.3°F14.6°C 94% Calm Calm -- 26.61 in901.1 mb - 0.00 in0.0 mm 0.00 in0.0 mm
12:30 AM 60.0°F15.6°C 58.6°F14.8°C 95% Calm Calm -- 26.61 in901.1 mb - 0.00 in0.0 mm 0.00 in0.0 mm
12:35 AM 60.0°F15.6°C 58.6°F14.8°C 95% Calm Calm -- 26.61 in901.1 mb - 0.00 in0.0 mm 0.00 in0.0 mm
12:40 AM 60.0°F15.6°C 58.3°F14.6°C 94% Calm Calm -- 26.61 in901.1 mb - 0.00 in0.0 mm 0.00 in0.0 mm
12:45 AM 60.0°F15.6°C 58.3°F14.6°C 94% Calm Calm -- 26.61 in901.1 mb - 0.00 in0.0 mm 0.00 in0.0 mm
12:50 AM 60.0°F15.6°C 58.3°F14.6°C 94% Calm Calm -- 26.61 in901.1 mb - 0.00 in0.0 mm 0.00 in0.0 mm
12:55 AM 60.0°F15.6°C 58.3°F14.6°C 94% Calm Calm -- 26.61 in901.1 mb - 0.00 in0.0 mm 0.00 in0.0 mm
01:00 AM 61.0°F16.1°C 59.3°F15.2°C 94% Calm Calm -- 26.62 in901.5 mb - 0.00 in0.0 mm 0.00 in0.0 mm
01:10 AM 60.0°F15.6°C 58.6°F14.8°C 95% Calm Calm -- 26.61 in901.1 mb - 0.00 in0.0 mm 0.00 in0.0 mm
01:15 AM 60.0°F15.6°C 58.6°F14.8°C 95% Calm Calm -- 26.61 in901.1 mb - 0.00 in0.0 mm 0.00 in0.0 mm
01:20 AM 60.0°F15.6°C 58.6°F14.8°C 95% Calm Calm -- 26.60 in900.8 mb - 0.00 in0.0 mm 0.00 in0.0 mm
01:25 AM 60.3°F15.7°C 58.9°F14.9°C 95% Calm Calm -- 26.60 in900.8 mb - 0.00 in0.0 mm 0.00 in0.0 mm
01:30 AM 61.0°F16.1°C 59.6°F15.3°C 95% Calm Calm -- 26.61 in901.1 mb - 0.00 in0.0 mm 0.00 in0.0 mm
01:35 AM 60.0°F15.6°C 58.6°F14.8°C 95% Calm Calm -- 26.61 in901.1 mb - 0.01 in0.3 mm 0.01 in0.3 mm
01:40 AM 60.0°F15.6°C 58.9°F14.9°C 96% Calm Calm -- 26.62 in901.5 mb - 0.01 in0.3 mm 0.01 in0.3 mm
01:45 AM 60.0°F15.6°C 58.9°F14.9°C 96% Calm Calm -- 26.61 in901.1 mb - 0.02 in0.5 mm 0.02 in0.5 mm
01:50 AM 60.0°F15.6°C 59.1°F15.1°C 97% Calm Calm -- 26.62 in901.5 mb - 0.02 in0.5 mm 0.02 in0.5 mm
01:55 AM 60.0°F15.6°C 59.1°F15.1°C 97% Calm Calm -- 26.61 in901.1 mb - 0.02 in0.5 mm 0.02 in0.5 mm
02:00 AM 60.0°F15.6°C 59.1°F15.1°C 97% Calm Calm -- 26.61 in901.1 mb - 0.02 in0.5 mm 0.02 in0.5 mm
02:10 AM 60.0°F15.6°C 59.1°F15.1°C 97% Calm Calm -- 26.61 in901.1 mb - 0.02 in0.5 mm 0.02 in0.5 mm
02:15 AM 60.0°F15.6°C 59.1°F15.1°C 97% Calm Calm -- 26.61 in901.1 mb - 0.02 in0.5 mm 0.02 in0.5 mm
02:20 AM 60.0°F15.6°C 59.1°F15.1°C 97% Calm Calm -- 26.61 in901.1 mb - 0.02 in0.5 mm 0.02 in0.5 mm
02:25 AM 60.0°F15.6°C 59.4°F15.2°C 98% Calm Calm -- 26.61 in901.1 mb - 0.02 in0.5 mm 0.02 in0.5 mm
02:30 AM 60.0°F15.6°C 59.4°F15.2°C 98% Calm Calm -- 26.61 in901.1 mb - 0.02 in0.5 mm 0.02 in0.5 mm
02:35 AM 60.0°F15.6°C 59.4°F15.2°C 98% Calm Calm -- 26.61 in901.1 mb - 0.01 in0.3 mm 0.02 in0.5 mm
02:40 AM 60.0°F15.6°C 59.1°F15.1°C 97% Calm Calm -- 26.60 in900.8 mb - 0.01 in0.3 mm 0.02 in0.5 mm
02:45 AM 60.0°F15.6°C 59.4°F15.2°C 98% Calm Calm -- 26.60 in900.8 mb - 0.00 in0.0 mm 0.02 in0.5 mm
02:50 AM 60.0°F15.6°C 59.4°F15.2°C 98% Calm Calm -- 26.61 in901.1 mb - 0.00 in0.0 mm 0.02 in0.5 mm
02:55 AM 60.0°F15.6°C 59.4°F15.2°C 98% Calm Calm -- 26.60 in900.8 mb - 0.00 in0.0 mm 0.02 in0.5 mm
03:00 AM 60.0°F15.6°C 59.4°F15.2°C 98% Calm Calm -- 26.60 in900.8 mb - 0.00 in0.0 mm 0.02 in0.5 mm
03:10 AM 60.0°F15.6°C 59.4°F15.2°C 98% Calm Calm -- 26.59 in900.4 mb - 0.00 in0.0 mm 0.02 in0.5 mm
03:15 AM 60.0°F15.6°C 59.4°F15.2°C 98% Calm Calm -- 26.60 in900.8 mb - 0.00 in0.0 mm 0.02 in0.5 mm
03:20 AM 60.0°F15.6°C 59.4°F15.2°C 98% Calm Calm -- 26.60 in900.8 mb - 0.00 in0.0 mm 0.02 in0.5 mm
03:25 AM 59.0°F15.0°C 58.4°F14.7°C 98% Calm Calm -- 26.60 in900.8 mb - 0.00 in0.0 mm 0.02 in0.5 mm
03:30 AM 59.0°F15.0°C 58.4°F14.7°C 98% Calm Calm -- 26.59 in900.4 mb - 0.00 in0.0 mm 0.02 in0.5 mm
03:35 AM 60.0°F15.6°C 59.4°F15.2°C 98% Calm Calm -- 26.59 in900.4 mb - 0.00 in0.0 mm 0.02 in0.5 mm
03:40 AM 60.0°F15.6°C 59.4°F15.2°C 98% Calm Calm -- 26.59 in900.4 mb - 0.00 in0.0 mm 0.02 in0.5 mm
03:45 AM 60.0°F15.6°C 59.4°F15.2°C 98% Calm Calm -- 26.60 in900.8 mb - 0.00 in0.0 mm 0.02 in0.5 mm
03:50 AM 60.0°F15.6°C 59.4°F15.2°C 98% Calm Calm -- 26.59 in900.4 mb - 0.00 in0.0 mm 0.02 in0.5 mm
03:55 AM 60.0°F15.6°C 59.4°F15.2°C 98% Calm Calm -- 26.59 in900.4 mb - 0.00 in0.0 mm 0.02 in0.5 mm
04:00 AM 60.0°F15.6°C 59.4°F15.2°C 98% Calm Calm -- 26.59 in900.4 mb - 0.00 in0.0 mm 0.02 in0.5 mm
04:10 AM 60.0°F15.6°C 59.4°F15.2°C 98% Calm Calm -- 26.59 in900.4 mb - 0.00 in0.0 mm 0.02 in0.5 mm
04:15 AM 60.0°F15.6°C 59.4°F15.2°C 98% Calm Calm -- 26.59 in900.4 mb - 0.00 in0.0 mm 0.02 in0.5 mm
04:20 AM 60.0°F15.6°C 59.4°F15.2°C 98% Calm Calm -- 26.59 in900.4 mb - 0.00 in0.0 mm 0.02 in0.5 mm
04:25 AM 59.0°F15.0°C 58.4°F14.7°C 98% Calm Calm -- 26.59 in900.4 mb - 0.00 in0.0 mm 0.02 in0.5 mm
04:30 AM 59.0°F15.0°C 58.4°F14.7°C 98% Calm Calm -- 26.58 in900.1 mb - 0.00 in0.0 mm 0.02 in0.5 mm
04:35 AM 59.0°F15.0°C 58.4°F14.7°C 98% Calm Calm -- 26.58 in900.1 mb - 0.00 in0.0 mm 0.02 in0.5 mm
04:40 AM 59.0°F15.0°C 58.4°F14.7°C 98% Calm Calm -- 26.58 in900.1 mb - 0.00 in0.0 mm 0.02 in0.5 mm
04:45 AM 59.0°F15.0°C 58.4°F14.7°C 98% Calm Calm -- 26.59 in900.4 mb - 0.00 in0.0 mm 0.02 in0.5 mm
04:50 AM 59.0°F15.0°C 58.4°F14.7°C 98% Calm Calm -- 26.59 in900.4 mb - 0.00 in0.0 mm 0.02 in0.5 mm
04:55 AM 59.0°F15.0°C 58.4°F14.7°C 98% Calm Calm -- 26.58 in900.1 mb - 0.00 in0.0 mm 0.02 in0.5 mm
05:00 AM 59.0°F15.0°C 58.4°F14.7°C 98% Calm Calm -- 26.58 in900.1 mb - 0.00 in0.0 mm 0.02 in0.5 mm
05:10 AM 60.0°F15.6°C 59.4°F15.2°C 98% Calm Calm -- 26.57 in899.8 mb - 0.00 in0.0 mm 0.02 in0.5 mm
05:15 AM 60.0°F15.6°C 59.4°F15.2°C 98% Calm Calm -- 26.57 in899.8 mb - 0.01 in0.3 mm 0.03 in0.8 mm
05:20 AM 60.0°F15.6°C 59.4°F15.2°C 98% Calm Calm -- 26.57 in899.8 mb - 0.01 in0.3 mm 0.03 in0.8 mm
05:25 AM 60.0°F15.6°C 59.4°F15.2°C 98% Calm Calm -- 26.58 in900.1 mb - 0.01 in0.3 mm 0.03 in0.8 mm
05:30 AM 60.0°F15.6°C 59.4°F15.2°C 98% Calm Calm -- 26.57 in899.8 mb - 0.02 in0.5 mm 0.04 in1.0 mm
05:35 AM 60.0°F15.6°C 59.4°F15.2°C 98% Calm Calm -- 26.58 in900.1 mb - 0.02 in0.5 mm 0.04 in1.0 mm
05:40 AM 60.0°F15.6°C 59.4°F15.2°C 98% Calm Calm -- 26.58 in900.1 mb - 0.02 in0.5 mm 0.04 in1.0 mm
05:45 AM 60.0°F15.6°C 59.4°F15.2°C 98% Calm Calm -- 26.59 in900.4 mb - 0.02 in0.5 mm 0.04 in1.0 mm
05:50 AM 60.0°F15.6°C 59.4°F15.2°C 98% Calm Calm -- 26.59 in900.4 mb - 0.03 in0.8 mm 0.05 in1.3 mm
05:55 AM 60.0°F15.6°C 59.4°F15.2°C 98% Calm Calm -- 26.59 in900.4 mb - 0.03 in0.8 mm 0.05 in1.3 mm
06:00 AM 60.0°F15.6°C 59.4°F15.2°C 98% Calm Calm -- 26.58 in900.1 mb - 0.03 in0.8 mm 0.05 in1.3 mm
06:10 AM 60.0°F15.6°C 59.4°F15.2°C 98% Calm Calm -- 26.59 in900.4 mb - 0.03 in0.8 mm 0.05 in1.3 mm
06:15 AM 60.0°F15.6°C 59.4°F15.2°C 98% Calm Calm -- 26.59 in900.4 mb - 0.03 in0.8 mm 0.06 in1.5 mm
06:20 AM 60.0°F15.6°C 59.4°F15.2°C 98% Calm Calm -- 26.59 in900.4 mb - 0.05 in1.3 mm 0.08 in2.0 mm
06:25 AM 60.0°F15.6°C 59.4°F15.2°C 98% Calm Calm -- 26.61 in901.1 mb - 0.05 in1.3 mm 0.08 in2.0 mm
06:30 AM 60.0°F15.6°C 59.4°F15.2°C 98% 2.3 mph E3.7 kmh E 2.3 mph3.7 kmh 26.61 in901.1 mb - 0.08 in2.0 mm 0.12 in3.0 mm
06:35 AM 59.0°F15.0°C 58.4°F14.7°C 98% Calm Calm -- 26.60 in900.8 mb - 0.13 in3.3 mm 0.17 in4.3 mm
06:40 AM 59.0°F15.0°C 58.4°F14.7°C 98% Calm Calm -- 26.61 in901.1 mb - 0.14 in3.6 mm 0.18 in4.6 mm
06:45 AM 59.0°F15.0°C 58.4°F14.7°C 98% Calm Calm -- 26.60 in900.8 mb - 0.14 in3.6 mm 0.18 in4.6 mm
06:50 AM 59.0°F15.0°C 58.4°F14.7°C 98% Calm Calm 1.2 mph1.9 kmh 26.60 in900.8 mb - 0.14 in3.6 mm 0.18 in4.6 mm
06:55 AM 59.0°F15.0°C 58.4°F14.7°C 98% Calm Calm 1.2 mph1.9 kmh 26.61 in901.1 mb - 0.13 in3.3 mm 0.18 in4.6 mm
07:00 AM 59.0°F15.0°C 58.4°F14.7°C 98% Calm Calm 1.2 mph1.9 kmh 26.61 in901.1 mb - 0.13 in3.3 mm 0.18 in4.6 mm
07:10 AM 59.0°F15.0°C 58.7°F14.8°C 99% Calm Calm -- 26.62 in901.5 mb - 0.13 in3.3 mm 0.18 in4.6 mm
07:15 AM 59.0°F15.0°C 58.7°F14.8°C 99% Calm Calm 1.2 mph1.9 kmh 26.62 in901.5 mb - 0.13 in3.3 mm 0.19 in4.8 mm
07:20 AM 59.0°F15.0°C 58.7°F14.8°C 99% Calm Calm 1.2 mph1.9 kmh 26.62 in901.5 mb - 0.14 in3.6 mm 0.20 in5.1 mm
07:25 AM 59.0°F15.0°C 58.7°F14.8°C 99% Calm Calm -- 26.62 in901.5 mb - 0.12 in3.0 mm 0.20 in5.1 mm
07:30 AM 59.0°F15.0°C 58.7°F14.8°C 99% Calm Calm -- 26.63 in901.8 mb - 0.09 in2.3 mm 0.21 in5.3 mm
07:35 AM 59.0°F15.0°C 58.7°F14.8°C 99% Calm Calm -- 26.62 in901.5 mb - 0.06 in1.5 mm 0.23 in5.8 mm
07:40 AM 59.0°F15.0°C 58.7°F14.8°C 99% Calm Calm -- 26.62 in901.5 mb - 0.06 in1.5 mm 0.24 in6.1 mm
07:45 AM 59.0°F15.0°C 58.7°F14.8°C 99% Calm Calm -- 26.62 in901.5 mb - 0.06 in1.5 mm 0.24 in6.1 mm
07:50 AM 59.0°F15.0°C 58.7°F14.8°C 99% Calm Calm -- 26.62 in901.5 mb - 0.06 in1.5 mm 0.24 in6.1 mm
07:55 AM 59.0°F15.0°C 58.7°F14.8°C 99% Calm Calm -- 26.62 in901.5 mb - 0.06 in1.5 mm 0.24 in6.1 mm
08:00 AM 59.0°F15.0°C 58.7°F14.8°C 99% Calm Calm -- 26.62 in901.5 mb - 0.06 in1.5 mm 0.24 in6.1 mm
08:10 AM 60.0°F15.6°C 59.7°F15.4°C 99% Calm Calm -- 26.62 in901.5 mb - 0.06 in1.5 mm 0.24 in6.1 mm
08:15 AM 60.9°F16.1°C 60.6°F15.9°C 99% Calm Calm -- 26.61 in901.1 mb - 0.05 in1.3 mm 0.24 in6.1 mm
08:20 AM 61.0°F16.1°C 60.7°F15.9°C 99% Calm Calm -- 26.61 in901.1 mb - 0.05 in1.3 mm 0.24 in6.1 mm
08:25 AM 60.0°F15.6°C 59.7°F15.4°C 99% Calm Calm -- 26.62 in901.5 mb - 0.04 in1.0 mm 0.24 in6.1 mm
08:30 AM 60.0°F15.6°C 59.7°F15.4°C 99% Calm Calm -- 26.62 in901.5 mb - 0.03 in0.8 mm 0.24 in6.1 mm
08:35 AM 60.0°F15.6°C 59.7°F15.4°C 99% Calm Calm 1.2 mph1.9 kmh 26.62 in901.5 mb - 0.01 in0.3 mm 0.24 in6.1 mm
08:40 AM 60.0°F15.6°C 59.4°F15.2°C 98% Calm Calm -- 26.62 in901.5 mb - 0.00 in0.0 mm 0.24 in6.1 mm
08:45 AM 60.0°F15.6°C 59.7°F15.4°C 99% Calm Calm -- 26.62 in901.5 mb - 0.00 in0.0 mm 0.24 in6.1 mm
08:50 AM 60.0°F15.6°C 59.7°F15.4°C 99% Calm Calm -- 26.62 in901.5 mb - 0.01 in0.3 mm 0.25 in6.4 mm
08:55 AM 60.0°F15.6°C 59.4°F15.2°C 98% Calm Calm -- 26.63 in901.8 mb - 0.01 in0.3 mm 0.25 in6.4 mm
09:00 AM 60.0°F15.6°C 59.7°F15.4°C 99% Calm Calm -- 26.61 in901.1 mb - 0.01 in0.3 mm 0.25 in6.4 mm
09:10 AM 60.0°F15.6°C 59.4°F15.2°C 98% Calm Calm -- 26.62 in901.5 mb - 0.02 in0.5 mm 0.26 in6.6 mm
09:15 AM 60.0°F15.6°C 59.4°F15.2°C 98% Calm Calm -- 26.62 in901.5 mb - 0.02 in0.5 mm 0.26 in6.6 mm
09:20 AM 60.0°F15.6°C 59.4°F15.2°C 98% Calm Calm -- 26.62 in901.5 mb - 0.02 in0.5 mm 0.26 in6.6 mm
09:25 AM 62.0°F16.7°C 61.7°F16.5°C 99% Calm Calm -- 26.62 in901.5 mb - 0.02 in0.5 mm 0.26 in6.6 mm
09:30 AM 62.0°F16.7°C 61.4°F16.3°C 98% Calm Calm -- 26.62 in901.5 mb - 0.02 in0.5 mm 0.26 in6.6 mm
09:35 AM 61.0°F16.1°C 60.4°F15.8°C 98% Calm Calm -- 26.62 in901.5 mb - 0.02 in0.5 mm 0.26 in6.6 mm
09:40 AM 62.0°F16.7°C 61.4°F16.3°C 98% Calm Calm -- 26.62 in901.5 mb - 0.02 in0.5 mm 0.26 in6.6 mm
09:45 AM 62.0°F16.7°C 61.1°F16.2°C 97% Calm Calm -- 26.63 in901.8 mb - 0.02 in0.5 mm 0.26 in6.6 mm
09:50 AM 61.0°F16.1°C 60.1°F15.6°C 97% Calm Calm -- 26.63 in901.8 mb - 0.02 in0.5 mm 0.26 in6.6 mm
09:55 AM 61.0°F16.1°C 60.1°F15.6°C 97% Calm Calm -- 26.63 in901.8 mb - 0.01 in0.3 mm 0.26 in6.6 mm
10:00 AM 61.0°F16.1°C 60.1°F15.6°C 97% Calm Calm -- 26.62 in901.5 mb - 0.01 in0.3 mm 0.26 in6.6 mm
10:10 AM 62.0°F16.7°C 60.8°F16.0°C 96% Calm Calm -- 26.62 in901.5 mb - 0.00 in0.0 mm 0.26 in6.6 mm
10:15 AM 62.0°F16.7°C 60.8°F16.0°C 96% Calm Calm -- 26.63 in901.8 mb - 0.00 in0.0 mm 0.26 in6.6 mm
10:20 AM 61.0°F16.1°C 59.9°F15.5°C 96% Calm Calm -- 26.63 in901.8 mb - 0.00 in0.0 mm 0.26 in6.6 mm
10:25 AM 62.0°F16.7°C 60.8°F16.0°C 96% Calm Calm -- 26.63 in901.8 mb - 0.00 in0.0 mm 0.26 in6.6 mm
10:30 AM 62.0°F16.7°C 60.8°F16.0°C 96% Calm Calm -- 26.63 in901.8 mb - 0.00 in0.0 mm 0.26 in6.6 mm
10:35 AM 62.0°F16.7°C 60.6°F15.9°C 95% Calm Calm -- 26.62 in901.5 mb - 0.00 in0.0 mm 0.26 in6.6 mm
10:40 AM 62.0°F16.7°C 60.6°F15.9°C 95% Calm Calm -- 26.62 in901.5 mb - 0.00 in0.0 mm 0.26 in6.6 mm
10:45 AM 62.0°F16.7°C 60.3°F15.7°C 94% Calm Calm -- 26.63 in901.8 mb - 0.00 in0.0 mm 0.26 in6.6 mm
10:50 AM 62.0°F16.7°C 60.3°F15.7°C 94% Calm Calm -- 26.63 in901.8 mb - 0.00 in0.0 mm 0.26 in6.6 mm
10:55 AM 63.0°F17.2°C 61.2°F16.2°C 94% Calm Calm -- 26.62 in901.5 mb - 0.00 in0.0 mm 0.26 in6.6 mm
11:00 AM 63.0°F17.2°C 60.6°F15.9°C 92% Calm Calm -- 26.62 in901.5 mb - 0.00 in0.0 mm 0.26 in6.6 mm
11:10 AM 65.0°F18.3°C 62.3°F16.8°C 91% Calm Calm -- 26.62 in901.5 mb - 0.00 in0.0 mm 0.26 in6.6 mm
11:15 AM 65.8°F18.8°C 63.1°F17.3°C 91% Calm Calm -- 26.62 in901.5 mb - 0.00 in0.0 mm 0.26 in6.6 mm
11:20 AM 66.0°F18.9°C 63.3°F17.4°C 91% Calm Calm -- 26.62 in901.5 mb - 0.00 in0.0 mm 0.26 in6.6 mm
11:25 AM 68.0°F20.0°C 64.0°F17.8°C 87% Calm Calm -- 26.62 in901.5 mb - 0.00 in0.0 mm 0.26 in6.6 mm
11:30 AM 70.0°F21.1°C 63.5°F17.5°C 80% Calm Calm -- 26.61 in901.1 mb - 0.00 in0.0 mm 0.26 in6.6 mm
11:35 AM 71.0°F21.7°C 63.4°F17.4°C 77% Calm Calm -- 26.62 in901.5 mb - 0.00 in0.0 mm 0.26 in6.6 mm
11:40 AM 70.0°F21.1°C 63.9°F17.7°C 81% Calm Calm -- 26.61 in901.1 mb - 0.00 in0.0 mm 0.26 in6.6 mm
11:45 AM 71.5°F21.9°C 65.4°F18.6°C 81% Calm Calm -- 26.61 in901.1 mb - 0.00 in0.0 mm 0.26 in6.6 mm
11:50 AM 72.0°F22.2°C 62.1°F16.7°C 71% Calm Calm -- 26.61 in901.1 mb - 0.00 in0.0 mm 0.26 in6.6 mm
11:55 AM 72.0°F22.2°C 60.9°F16.1°C 68% Calm Calm -- 26.60 in900.8 mb - 0.00 in0.0 mm 0.26 in6.6 mm
12:00 PM 73.0°F22.8°C 63.4°F17.4°C 72% Calm Calm -- 26.60 in900.8 mb - 0.00 in0.0 mm 0.26 in6.6 mm
12:10 PM 76.0°F24.4°C 61.1°F16.2°C 60% Calm Calm 1.2 mph1.9 kmh 26.60 in900.8 mb - 0.00 in0.0 mm 0.26 in6.6 mm
12:15 PM 76.0°F24.4°C 62.0°F16.7°C 62% Calm Calm 1.2 mph1.9 kmh 26.60 in900.8 mb - 0.00 in0.0 mm 0.26 in6.6 mm
12:20 PM 75.0°F23.9°C 61.5°F16.4°C 63% Calm Calm -- 26.60 in900.8 mb - 0.00 in0.0 mm 0.26 in6.6 mm
12:25 PM 74.0°F23.3°C 62.3°F16.8°C 67% Calm Calm -- 26.60 in900.8 mb - 0.00 in0.0 mm 0.26 in6.6 mm
12:30 PM 73.0°F22.8°C 61.8°F16.6°C 68% Calm Calm -- 26.60 in900.8 mb - 0.00 in0.0 mm 0.26 in6.6 mm
12:35 PM 72.0°F22.2°C 61.3°F16.3°C 69% Calm Calm -- 26.60 in900.8 mb - 0.00 in0.0 mm 0.26 in6.6 mm
12:40 PM 72.0°F22.2°C 62.1°F16.7°C 71% Calm Calm -- 26.59 in900.4 mb - 0.00 in0.0 mm 0.26 in6.6 mm
12:45 PM 72.0°F22.2°C 61.7°F16.5°C 70% Calm Calm 1.2 mph1.9 kmh 26.60 in900.8 mb - 0.00 in0.0 mm 0.26 in6.6 mm
12:50 PM 72.0°F22.2°C 61.3°F16.3°C 69% Calm Calm 1.2 mph1.9 kmh 26.60 in900.8 mb - 0.00 in0.0 mm 0.26 in6.6 mm
12:55 PM 71.0°F21.7°C 61.1°F16.2°C 71% Calm Calm -- 26.60 in900.8 mb - 0.00 in0.0 mm 0.26 in6.6 mm
01:00 PM 71.0°F21.7°C 61.5°F16.4°C 72% Calm Calm -- 26.60 in900.8 mb - 0.00 in0.0 mm 0.26 in6.6 mm
01:10 PM 70.0°F21.1°C 61.7°F16.5°C 75% 1.2 mph W1.9 kmh W 1.2 mph1.9 kmh 26.61 in901.1 mb - 0.00 in0.0 mm 0.26 in6.6 mm
01:15 PM 70.0°F21.1°C 62.1°F16.7°C 76% Calm Calm 1.2 mph1.9 kmh 26.61 in901.1 mb - 0.00 in0.0 mm 0.26 in6.6 mm
01:20 PM 70.0°F21.1°C 62.1°F16.7°C 76% Calm Calm -- 26.60 in900.8 mb - 0.00 in0.0 mm 0.26 in6.6 mm
01:25 PM 70.0°F21.1°C 61.3°F16.3°C 74% Calm Calm -- 26.60 in900.8 mb - 0.00 in0.0 mm 0.26 in6.6 mm
01:30 PM 69.0°F20.6°C 62.2°F16.8°C 79% Calm Calm -- 26.60 in900.8 mb - 0.00 in0.0 mm 0.26 in6.6 mm
01:35 PM 69.0°F20.6°C 62.2°F16.8°C 79% Calm Calm -- 26.60 in900.8 mb - 0.00 in0.0 mm 0.26 in6.6 mm
01:40 PM 69.0°F20.6°C 62.6°F17.0°C 80% Calm Calm -- 26.60 in900.8 mb - 0.00 in0.0 mm 0.26 in6.6 mm
01:45 PM 69.0°F20.6°C 62.2°F16.8°C 79% Calm Calm -- 26.59 in900.4 mb - 0.00 in0.0 mm 0.26 in6.6 mm
01:50 PM 69.0°F20.6°C 61.9°F16.6°C 78% Calm Calm -- 26.59 in900.4 mb - 0.00 in0.0 mm 0.26 in6.6 mm
01:55 PM 69.0°F20.6°C 61.1°F16.2°C 76% Calm Calm -- 26.60 in900.8 mb - 0.00 in0.0 mm 0.26 in6.6 mm
02:00 PM 70.0°F21.1°C 62.8°F17.1°C 78% Calm Calm -- 26.60 in900.8 mb - 0.00 in0.0 mm 0.26 in6.6 mm
02:10 PM 71.0°F21.7°C 63.4°F17.4°C 77% Calm Calm -- 26.60 in900.8 mb - 0.00 in0.0 mm 0.26 in6.6 mm
02:15 PM 70.6°F21.4°C 63.1°F17.3°C 77% Calm Calm -- 26.60 in900.8 mb - 0.00 in0.0 mm 0.26 in6.6 mm
02:20 PM 70.0°F21.1°C 62.8°F17.1°C 78% Calm Calm -- 26.60 in900.8 mb - 0.00 in0.0 mm 0.26 in6.6 mm
02:25 PM 70.0°F21.1°C 62.5°F16.9°C 77% Calm Calm -- 26.59 in900.4 mb - 0.00 in0.0 mm 0.26 in6.6 mm
02:30 PM 71.0°F21.7°C 64.5°F18.1°C 80% Calm Calm -- 26.59 in900.4 mb - 0.00 in0.0 mm 0.26 in6.6 mm
02:35 PM 70.0°F21.1°C 62.8°F17.1°C 78% Calm Calm -- 26.60 in900.8 mb - 0.00 in0.0 mm 0.26 in6.6 mm
02:40 PM 70.0°F21.1°C 63.2°F17.3°C 79% Calm Calm -- 26.59 in900.4 mb - 0.00 in0.0 mm 0.26 in6.6 mm
02:45 PM 70.3°F21.3°C 63.5°F17.5°C 79% Calm Calm -- 26.59 in900.4 mb - 0.00 in0.0 mm 0.26 in6.6 mm
02:50 PM 71.0°F21.7°C 63.8°F17.7°C 78% Calm Calm -- 26.59 in900.4 mb - 0.00 in0.0 mm 0.26 in6.6 mm
02:55 PM 70.0°F21.1°C 62.5°F16.9°C 77% Calm Calm -- 26.59 in900.4 mb - 0.00 in0.0 mm 0.26 in6.6 mm
03:00 PM 70.0°F21.1°C 62.8°F17.1°C 78% Calm Calm -- 26.59 in900.4 mb - 0.00 in0.0 mm 0.26 in6.6 mm
03:10 PM 70.0°F21.1°C 63.2°F17.3°C 79% Calm Calm -- 26.59 in900.4 mb - 0.00 in0.0 mm 0.26 in6.6 mm
03:15 PM 70.0°F21.1°C 63.5°F17.5°C 80% Calm Calm -- 26.59 in900.4 mb - 0.00 in0.0 mm 0.26 in6.6 mm
03:20 PM 70.0°F21.1°C 64.2°F17.9°C 82% Calm Calm -- 26.58 in900.1 mb - 0.00 in0.0 mm 0.26 in6.6 mm
03:25 PM 69.0°F20.6°C 62.9°F17.2°C 81% Calm Calm -- 26.58 in900.1 mb - 0.00 in0.0 mm 0.26 in6.6 mm
03:30 PM 69.0°F20.6°C 63.3°F17.4°C 82% Calm Calm -- 26.59 in900.4 mb - 0.00 in0.0 mm 0.26 in6.6 mm
03:35 PM 70.0°F21.1°C 64.6°F18.1°C 83% Calm Calm -- 26.59 in900.4 mb - 0.00 in0.0 mm 0.26 in6.6 mm
03:40 PM 69.0°F20.6°C 62.9°F17.2°C 81% Calm Calm -- 26.59 in900.4 mb - 0.00 in0.0 mm 0.26 in6.6 mm
03:45 PM 69.0°F20.6°C 62.9°F17.2°C 81% Calm Calm -- 26.59 in900.4 mb - 0.00 in0.0 mm 0.26 in6.6 mm
03:50 PM 69.0°F20.6°C 62.9°F17.2°C 81% Calm Calm -- 26.59 in900.4 mb - 0.00 in0.0 mm 0.26 in6.6 mm
03:55 PM 69.0°F20.6°C 63.3°F17.4°C 82% Calm Calm -- 26.59 in900.4 mb - 0.00 in0.0 mm 0.26 in6.6 mm
04:00 PM 69.0°F20.6°C 62.9°F17.2°C 81% Calm Calm -- 26.59 in900.4 mb - 0.00 in0.0 mm 0.26 in6.6 mm
04:10 PM 69.0°F20.6°C 64.0°F17.8°C 84% Calm Calm 1.2 mph1.9 kmh 26.59 in900.4 mb - 0.00 in0.0 mm 0.26 in6.6 mm
04:15 PM 69.0°F20.6°C 64.0°F17.8°C 84% Calm Calm 1.2 mph1.9 kmh 26.59 in900.4 mb - 0.00 in0.0 mm 0.26 in6.6 mm
04:20 PM 69.0°F20.6°C 64.0°F17.8°C 84% Calm Calm -- 26.59 in900.4 mb - 0.00 in0.0 mm 0.26 in6.6 mm
04:25 PM 69.0°F20.6°C 64.0°F17.8°C 84% Calm Calm 1.2 mph1.9 kmh 26.60 in900.8 mb - 0.00 in0.0 mm 0.26 in6.6 mm
04:30 PM 69.0°F20.6°C 64.0°F17.8°C 84% Calm Calm -- 26.59 in900.4 mb - 0.00 in0.0 mm 0.26 in6.6 mm
04:35 PM 69.0°F20.6°C 64.0°F17.8°C 84% Calm Calm -- 26.59 in900.4 mb - 0.00 in0.0 mm 0.26 in6.6 mm
04:40 PM 69.0°F20.6°C 64.3°F17.9°C 85% Calm Calm -- 26.59 in900.4 mb - 0.00 in0.0 mm 0.26 in6.6 mm
04:45 PM 69.0°F20.6°C 64.3°F17.9°C 85% Calm Calm -- 26.59 in900.4 mb - 0.00 in0.0 mm 0.26 in6.6 mm
04:50 PM 69.0°F20.6°C 64.3°F17.9°C 85% Calm Calm -- 26.59 in900.4 mb - 0.00 in0.0 mm 0.26 in6.6 mm
04:55 PM 69.0°F20.6°C 64.3°F17.9°C 85% Calm Calm 1.2 mph1.9 kmh 26.59 in900.4 mb - 0.00 in0.0 mm 0.26 in6.6 mm
05:00 PM 69.0°F20.6°C 64.3°F17.9°C 85% Calm Calm 1.2 mph1.9 kmh 26.59 in900.4 mb - 0.00 in0.0 mm 0.26 in6.6 mm
05:10 PM 68.0°F20.0°C 63.3°F17.4°C 85% Calm Calm -- 26.58 in900.1 mb - 0.00 in0.0 mm 0.26 in6.6 mm
05:15 PM 68.0°F20.0°C 63.3°F17.4°C 85% Calm Calm -- 26.58 in900.1 mb - 0.00 in0.0 mm 0.26 in6.6 mm
05:20 PM 68.0°F20.0°C 63.3°F17.4°C 85% Calm Calm -- 26.58 in900.1 mb - 0.00 in0.0 mm 0.26 in6.6 mm
05:25 PM 68.0°F20.0°C 63.3°F17.4°C 85% Calm Calm -- 26.58 in900.1 mb - 0.00 in0.0 mm 0.26 in6.6 mm
05:30 PM 68.0°F20.0°C 63.3°F17.4°C 85% Calm Calm -- 26.58 in900.1 mb - 0.00 in0.0 mm 0.26 in6.6 mm
05:35 PM 68.0°F20.0°C 63.3°F17.4°C 85% Calm Calm -- 26.58 in900.1 mb - 0.00 in0.0 mm 0.26 in6.6 mm
05:40 PM 68.0°F20.0°C 63.3°F17.4°C 85% Calm Calm -- 26.58 in900.1 mb - 0.00 in0.0 mm 0.26 in6.6 mm
05:45 PM 68.0°F20.0°C 63.3°F17.4°C 85% Calm Calm -- 26.58 in900.1 mb - 0.00 in0.0 mm 0.26 in6.6 mm
05:50 PM 68.0°F20.0°C 63.3°F17.4°C 85% Calm Calm -- 26.58 in900.1 mb - 0.00 in0.0 mm 0.26 in6.6 mm
05:55 PM 68.0°F20.0°C 63.3°F17.4°C 85% Calm Calm -- 26.58 in900.1 mb - 0.00 in0.0 mm 0.26 in6.6 mm
06:00 PM 68.0°F20.0°C 63.3°F17.4°C 85% Calm Calm -- 26.58 in900.1 mb - 0.00 in0.0 mm 0.26 in6.6 mm
06:10 PM 68.0°F20.0°C 63.3°F17.4°C 85% Calm Calm -- 26.58 in900.1 mb - 0.00 in0.0 mm 0.26 in6.6 mm
06:15 PM 68.0°F20.0°C 63.3°F17.4°C 85% Calm Calm -- 26.58 in900.1 mb - 0.00 in0.0 mm 0.26 in6.6 mm
06:20 PM 68.0°F20.0°C 63.3°F17.4°C 85% Calm Calm -- 26.58 in900.1 mb - 0.00 in0.0 mm 0.26 in6.6 mm
06:25 PM 68.0°F20.0°C 63.3°F17.4°C 85% Calm Calm -- 26.58 in900.1 mb - 0.00 in0.0 mm 0.26 in6.6 mm
06:30 PM 68.0°F20.0°C 63.3°F17.4°C 85% Calm Calm -- 26.58 in900.1 mb - 0.00 in0.0 mm 0.26 in6.6 mm
06:35 PM 68.0°F20.0°C 63.3°F17.4°C 85% Calm Calm -- 26.58 in900.1 mb - 0.00 in0.0 mm 0.26 in6.6 mm
06:40 PM 68.0°F20.0°C 63.3°F17.4°C 85% Calm Calm -- 26.58 in900.1 mb - 0.00 in0.0 mm 0.26 in6.6 mm
06:45 PM 68.0°F20.0°C 63.3°F17.4°C 85% Calm Calm -- 26.58 in900.1 mb - 0.00 in0.0 mm 0.26 in6.6 mm
06:50 PM 68.0°F20.0°C 63.3°F17.4°C 85% Calm Calm -- 26.58 in900.1 mb - 0.00 in0.0 mm 0.26 in6.6 mm
06:55 PM 68.0°F20.0°C 63.3°F17.4°C 85% Calm Calm -- 26.58 in900.1 mb - 0.00 in0.0 mm 0.26 in6.6 mm
07:00 PM 68.0°F20.0°C 63.3°F17.4°C 85% Calm Calm -- 26.58 in900.1 mb - 0.00 in0.0 mm 0.26 in6.6 mm
07:10 PM 68.0°F20.0°C 63.3°F17.4°C 85% Calm Calm -- 26.58 in900.1 mb - 0.00 in0.0 mm 0.26 in6.6 mm
07:15 PM 68.0°F20.0°C 63.3°F17.4°C 85% Calm Calm -- 26.58 in900.1 mb - 0.00 in0.0 mm 0.26 in6.6 mm
07:20 PM 68.0°F20.0°C 63.3°F17.4°C 85% Calm Calm -- 26.58 in900.1 mb - 0.00 in0.0 mm 0.26 in6.6 mm
07:25 PM 68.0°F20.0°C 63.3°F17.4°C 85% Calm Calm -- 26.58 in900.1 mb - 0.00 in0.0 mm 0.26 in6.6 mm
07:30 PM 68.0°F20.0°C 63.3°F17.4°C 85% Calm Calm -- 26.58 in900.1 mb - 0.00 in0.0 mm 0.26 in6.6 mm
07:35 PM 68.0°F20.0°C 63.3°F17.4°C 85% Calm Calm -- 26.58 in900.1 mb - 0.00 in0.0 mm 0.26 in6.6 mm
07:40 PM 68.0°F20.0°C 63.3°F17.4°C 85% Calm Calm -- 26.58 in900.1 mb - 0.00 in0.0 mm 0.26 in6.6 mm
07:45 PM 68.0°F20.0°C 63.3°F17.4°C 85% Calm Calm -- 26.58 in900.1 mb - 0.00 in0.0 mm 0.26 in6.6 mm
07:50 PM 68.0°F20.0°C 63.3°F17.4°C 85% Calm Calm -- 26.58 in900.1 mb - 0.00 in0.0 mm 0.26 in6.6 mm
07:55 PM 68.0°F20.0°C 63.3°F17.4°C 85% Calm Calm -- 26.58 in900.1 mb - 0.00 in0.0 mm 0.26 in6.6 mm
08:00 PM 68.0°F20.0°C 63.3°F17.4°C 85% Calm Calm -- 26.58 in900.1 mb - 0.00 in0.0 mm 0.26 in6.6 mm
08:10 PM 68.0°F20.0°C 63.3°F17.4°C 85% Calm Calm -- 26.58 in900.1 mb - 0.00 in0.0 mm 0.26 in6.6 mm
08:15 PM 68.0°F20.0°C 63.3°F17.4°C 85% Calm Calm -- 26.58 in900.1 mb - 0.00 in0.0 mm 0.26 in6.6 mm
08:20 PM 68.0°F20.0°C 63.3°F17.4°C 85% Calm Calm -- 26.58 in900.1 mb - 0.00 in0.0 mm 0.26 in6.6 mm
08:25 PM 68.0°F20.0°C 63.3°F17.4°C 85% Calm Calm -- 26.58 in900.1 mb - 0.00 in0.0 mm 0.26 in6.6 mm
08:30 PM 68.0°F20.0°C 63.3°F17.4°C 85% Calm Calm -- 26.58 in900.1 mb - 0.00 in0.0 mm 0.26 in6.6 mm
08:35 PM 68.0°F20.0°C 63.3°F17.4°C 85% Calm Calm -- 26.58 in900.1 mb - 0.00 in0.0 mm 0.26 in6.6 mm
08:40 PM 68.0°F20.0°C 63.3°F17.4°C 85% Calm Calm -- 26.58 in900.1 mb - 0.00 in0.0 mm 0.26 in6.6 mm
08:45 PM 68.0°F20.0°C 63.3°F17.4°C 85% Calm Calm -- 26.58 in900.1 mb - 0.00 in0.0 mm 0.26 in6.6 mm
08:50 PM 68.0°F20.0°C 63.3°F17.4°C 85% Calm Calm -- 26.58 in900.1 mb - 0.00 in0.0 mm 0.26 in6.6 mm
08:55 PM 68.0°F20.0°C 63.3°F17.4°C 85% Calm Calm -- 26.58 in900.1 mb - 0.00 in0.0 mm 0.26 in6.6 mm
09:00 PM 68.0°F20.0°C 63.3°F17.4°C 85% Calm Calm -- 26.58 in900.1 mb - 0.00 in0.0 mm 0.26 in6.6 mm
09:10 PM 68.0°F20.0°C 63.3°F17.4°C 85% Calm Calm -- 26.58 in900.1 mb - 0.00 in0.0 mm 0.26 in6.6 mm
09:15 PM 68.0°F20.0°C 63.3°F17.4°C 85% Calm Calm -- 26.58 in900.1 mb - 0.00 in0.0 mm 0.26 in6.6 mm
09:20 PM 68.0°F20.0°C 63.3°F17.4°C 85% Calm Calm -- 26.58 in900.1 mb - 0.00 in0.0 mm 0.26 in6.6 mm
09:25 PM 68.0°F20.0°C 63.3°F17.4°C 85% Calm Calm -- 26.58 in900.1 mb - 0.00 in0.0 mm 0.26 in6.6 mm
09:30 PM 68.0°F20.0°C 63.3°F17.4°C 85% Calm Calm -- 26.58 in900.1 mb - 0.00 in0.0 mm 0.26 in6.6 mm
09:35 PM 68.0°F20.0°C 63.3°F17.4°C 85% Calm Calm -- 26.58 in900.1 mb - 0.00 in0.0 mm 0.26 in6.6 mm
09:40 PM 68.0°F20.0°C 63.3°F17.4°C 85% Calm Calm -- 26.58 in900.1 mb - 0.00 in0.0 mm 0.26 in6.6 mm
09:45 PM 68.0°F20.0°C 63.3°F17.4°C 85% Calm Calm -- 26.58 in900.1 mb - 0.00 in0.0 mm 0.26 in6.6 mm
09:50 PM 68.0°F20.0°C 63.3°F17.4°C 85% Calm Calm -- 26.58 in900.1 mb - 0.00 in0.0 mm 0.26 in6.6 mm
09:55 PM 68.0°F20.0°C 63.3°F17.4°C 85% Calm Calm -- 26.58 in900.1 mb - 0.00 in0.0 mm 0.26 in6.6 mm
10:00 PM 68.0°F20.0°C 63.3°F17.4°C 85% Calm Calm -- 26.58 in900.1 mb - 0.00 in0.0 mm 0.26 in6.6 mm
10:10 PM 68.0°F20.0°C 63.3°F17.4°C 85% Calm Calm -- 26.58 in900.1 mb - 0.00 in0.0 mm 0.26 in6.6 mm
10:15 PM 68.0°F20.0°C 63.3°F17.4°C 85% Calm Calm -- 26.58 in900.1 mb - 0.00 in0.0 mm 0.26 in6.6 mm
10:20 PM 68.0°F20.0°C 63.3°F17.4°C 85% Calm Calm -- 26.58 in900.1 mb - 0.00 in0.0 mm 0.26 in6.6 mm
10:25 PM 68.0°F20.0°C 63.3°F17.4°C 85% Calm Calm -- 26.58 in900.1 mb - 0.00 in0.0 mm 0.26 in6.6 mm
10:30 PM 68.0°F20.0°C 63.3°F17.4°C 85% Calm Calm -- 26.58 in900.1 mb - 0.00 in0.0 mm 0.26 in6.6 mm
10:35 PM 68.0°F20.0°C 63.3°F17.4°C 85% Calm Calm -- 26.58 in900.1 mb - 0.00 in0.0 mm 0.26 in6.6 mm
10:40 PM 68.0°F20.0°C 63.3°F17.4°C 85% Calm Calm -- 26.58 in900.1 mb - 0.00 in0.0 mm 0.26 in6.6 mm
10:45 PM 68.0°F20.0°C 63.3°F17.4°C 85% Calm Calm -- 26.58 in900.1 mb - 0.00 in0.0 mm 0.26 in6.6 mm
10:50 PM 68.0°F20.0°C 63.3°F17.4°C 85% Calm Calm -- 26.58 in900.1 mb - 0.00 in0.0 mm 0.26 in6.6 mm
10:55 PM 68.0°F20.0°C 63.3°F17.4°C 85% Calm Calm -- 26.58 in900.1 mb - 0.00 in0.0 mm 0.26 in6.6 mm
11:00 PM 68.0°F20.0°C 63.3°F17.4°C 85% Calm Calm -- 26.58 in900.1 mb - 0.00 in0.0 mm 2.91 in73.9 mm
11:10 PM 68.0°F20.0°C 63.3°F17.4°C 85% Calm Calm -- 26.58 in900.1 mb - 0.00 in0.0 mm 2.91 in73.9 mm
11:15 PM 68.0°F20.0°C 63.3°F17.4°C 85% Calm Calm -- 26.58 in900.1 mb - 0.00 in0.0 mm 2.91 in73.9 mm
11:20 PM 68.0°F20.0°C 63.3°F17.4°C 85% Calm Calm -- 26.58 in900.1 mb - 0.00 in0.0 mm 2.91 in73.9 mm
11:25 PM 68.0°F20.0°C 63.3°F17.4°C 85% Calm Calm -- 26.58 in900.1 mb - 0.00 in0.0 mm 2.91 in73.9 mm
11:30 PM 68.0°F20.0°C 63.3°F17.4°C 85% Calm Calm -- 26.58 in900.1 mb - 0.00 in0.0 mm 2.91 in73.9 mm
11:35 PM 68.0°F20.0°C 63.3°F17.4°C 85% Calm Calm -- 26.58 in900.1 mb - 0.00 in0.0 mm 2.91 in73.9 mm
11:40 PM 68.0°F20.0°C 63.3°F17.4°C 85% Calm Calm -- 26.58 in900.1 mb - 0.00 in0.0 mm 2.91 in73.9 mm
11:45 PM 68.0°F20.0°C 63.3°F17.4°C 85% Calm Calm -- 26.58 in900.1 mb - 0.00 in0.0 mm 2.91 in73.9 mm
11:50 PM 68.0°F20.0°C 63.3°F17.4°C 85% Calm Calm -- 26.58 in900.1 mb - 0.00 in0.0 mm 2.91 in73.9 mm
11:55 PM 68.0°F20.0°C 63.3°F17.4°C 85% Calm Calm -- 26.58 in900.1 mb - 0.00 in0.0 mm 2.91 in73.9 mm